Thursday, September 20, 2018, 8:48 PM GMT
Back to Local

CYSC, Sherbrooke, Que.

Location: , , Canada Lat: 45.4
Local Time: 8:48 PM GMT (20:48 GMT) Lon: -71.883
Time Zone: GMT Elev: 557 ft

Show me the last for .
Show Decoded

2018-09-20 20:00 METAR CYSC 202000Z AUTO 28005KT 9SM BKN100 16/10 A3022 RMK SLP239 =
2018-09-20 19:00 METAR CYSC 201900Z AUTO 24004KT 210V290 9SM FEW110 16/10 A3023 RMK SLP242 =
2018-09-20 18:32 METAR CYSC 201832Z AUTO VRB05KT 9SM SCT023 SCT029 BKN110 16/10 A3024 RMK SLP246
                 =
2018-09-20 18:24 METAR CYSC 201824Z AUTO 00000KT 9SM BKN023 BKN029 16/11 A3024 RMK SLP244 =
2018-09-20 18:00 METAR CYSC 201800Z AUTO 06003KT 020V180 9SM BKN025 16/11 A3024 RMK SLP244 =
2018-09-20 17:37 METAR CYSC 201737Z AUTO VRB02KT 9SM SCT023 16/11 A3023 RMK SLP242 =
2018-09-20 17:10 METAR CYSC 201710Z AUTO VRB02KT 9SM BKN023 BKN120 BKN250 16/12 A3024 RMK SLP246
                 =
2018-09-20 17:01 METAR CYSC 201701Z AUTO 00000KT 9SM SCT023 BKN120 BKN250 16/11 A3024 RMK SLP247
                 =
2018-09-20 17:00 METAR CYSC 201700Z AUTO 00000KT 9SM BKN023 BKN120 BKN250 16/11 A3024 RMK SLP247
                 =
2018-09-20 16:37 METAR CYSC 201637Z AUTO VRB03KT 9SM BKN023 15/11 A3024 RMK SLP247 =
2018-09-20 16:00 METAR CYSC 201600Z AUTO VRB03KT 9SM FEW027 15/10 A3024 RMK SLP247 =
2018-09-20 15:20 METAR CYSC 201520Z AUTO VRB02KT 9SM SCT012 SCT037 14/12 A3026 RMK SLP252 =
2018-09-20 15:00 METAR CYSC 201500Z AUTO VRB02KT 9SM BKN012 BKN038 14/13 A3026 RMK SLP251 =
2018-09-20 14:47 METAR CYSC 201447Z AUTO 22003KT 9SM BKN010 13/11 A3026 RMK SLP252 =
2018-09-20 14:44 METAR CYSC 201444Z AUTO 22004KT 9SM BKN010 14/12 A3026 RMK SLP252 =
2018-09-20 14:24 METAR CYSC 201424Z AUTO VRB02KT 9SM BKN008 13/12 A3026 RMK SLP251 =
2018-09-20 14:00 METAR CYSC 201400Z AUTO 25004KT 9SM BKN006 13/12 A3027 RMK SLP255 =
2018-09-20 13:08 METAR CYSC 201308Z AUTO VRB02KT 9SM OVC004 12/12 A3025 RMK SLP249 =
2018-09-20 13:00 METAR CYSC 201300Z AUTO 28003KT 8SM -RA OVC004 12/12 A3025 RMK SLP248 =
2018-09-20 12:53 METAR CYSC 201253Z AUTO VRB04KT 9SM -RA BKN004 OVC026 12/11 A3025 RMK SLP249 =
2018-09-20 12:52 METAR CYSC 201252Z AUTO VRB03KT 9SM BKN004 OVC010 12/11 A3025 RMK SLP250 =
2018-09-20 12:31 METAR CYSC 201231Z AUTO VRB02KT 7SM -RA BKN004 BKN010 OVC026 12/11 A3024 RMK
                 SLP245 =
2018-09-20 12:29 METAR CYSC 201229Z AUTO VRB02KT 6SM -RA BR SCT004 BKN010 BKN017 OVC026 12/11
                 A3024 RMK SLP244 =
2018-09-20 12:27 METAR CYSC 201227Z AUTO VRB02KT 4SM -RA BR SCT006 BKN010 BKN013 OVC026 12/11
                 A3023 RMK SLP243 =
2018-09-20 12:11 METAR CYSC 201211Z AUTO VRB02KT 3SM -RA BR BKN004 OVC010 11/11 A3024 RMK SLP247
                 =
2018-09-20 12:06 METAR CYSC 201206Z AUTO 00000KT 2 1/4SM -RA BR BKN004 OVC010 11/11 A3024 RMK
                 SLP245 =
2018-09-20 12:00 METAR CYSC 201200Z AUTO 24002KT 1 3/4SM -RA BR BKN004 OVC010 11/11 A3024 RMK
                 PCPN 1.0MM PAST HR SLP245 =
2018-09-20 11:58 METAR CYSC 201158Z AUTO 22002KT 1 3/4SM -RA BR BKN004 OVC008 11/11 A3024 RMK VIS
                 VRB 1 1/4-3 SLP245 =
2018-09-20 11:54 METAR CYSC 201154Z AUTO 23003KT 2 1/2SM -RA BR BKN004 OVC008 11/11 A3024 RMK VIS
                 VRB 1 3/4-3 PRESRR SLP246 =
2018-09-20 11:45 METAR CYSC 201145Z AUTO VRB03KT 5SM -RA BR BKN004 OVC008 11/11 A3025 RMK PRESRR
                 SLP248 =
2018-09-20 11:13 METAR CYSC 201113Z AUTO VRB02KT 5SM -RA BR OVC016 11/11 A3021 RMK SLP235 =
2018-09-20 11:04 METAR CYSC 201104Z AUTO VRB02KT 9SM -RA OVC016 11/11 A3021 RMK SLP234 =
2018-09-20 11:00 METAR CYSC 201100Z AUTO VRB02KT 9SM OVC016 11/10 A3021 RMK SLP234 =
2018-09-20 10:00 METAR CYSC 201000Z AUTO VRB02KT 9SM OVC016 11/10 A3018 RMK SLP226 =
2018-09-20 09:00 METAR CYSC 200900Z AUTO 06005KT 9SM OVC018 11/10 A3015 RMK SLP216 =
2018-09-20 08:00 METAR CYSC 200800Z AUTO 05004KT 010V100 9SM OVC020 11/10 A3017 RMK SLP220 =
2018-09-20 07:01 METAR CYSC 200701Z AUTO VRB02KT 9SM BKN024 OVC045 11/10 A3017 RMK SLP221 =
2018-09-20 07:00 METAR CYSC 200700Z AUTO VRB02KT 9SM SCT024 OVC045 11/10 A3017 RMK SLP221 =
2018-09-20 06:00 METAR CYSC 200600Z AUTO 06005KT 9SM FEW043 11/10 A3014 RMK SLP212 =
2018-09-20 05:00 METAR CYSC 200500Z AUTO 03003KT 340V050 9SM OVC047 11/10 A3015 RMK SLP217 =
2018-09-20 04:00 METAR CYSC 200400Z AUTO 01003KT 9SM BKN045 11/10 A3015 RMK SLP216 =
2018-09-20 03:00 METAR CYSC 200300Z AUTO 04004KT 9SM FEW014 OVC045 12/11 A3014 RMK SLP212 =
2018-09-20 02:00 METAR CYSC 200200Z AUTO 03004KT 9SM OVC043 13/11 A3014 RMK SLP212 =
2018-09-20 01:00 METAR CYSC 200100Z AUTO 03003KT 9SM OVC041 13/11 A3014 RMK SLP211 =
2018-09-20 00:00 METAR CYSC 200000Z AUTO VRB02KT 9SM OVC035 13/11 A3012 RMK SLP206 =
2018-09-19 23:00 METAR CYSC 192300Z AUTO 33002KT 9SM FEW024 OVC038 13/12 A3010 RMK SLP198 =
2018-09-19 22:45 METAR CYSC 192245Z AUTO VRB02KT 9SM SCT021 BKN029 OVC036 13/12 A3009 RMK SLP195
                 =
2018-09-19 22:00 METAR CYSC 192200Z AUTO 31003KT 9SM OVC023 14/12 A3008 RMK SLP191 =
2018-09-19 21:40 METAR CYSC 192140Z AUTO 34004KT 300V010 9SM BKN023 OVC038 14/11 A3008 RMK SLP190
                 =
2018-09-19 21:00 METAR CYSC 192100Z AUTO 33005KT 9SM SCT020 OVC029 14/12 A3006 RMK SLP186 =

Support USWX by starting your Amazon purchase here.